sensor_id;sensor_type;location;lat;lon;timestamp;P1;durP1;ratioP1;P2;durP2;ratioP2
47804;SDS011;33568;45.286;9.900;2023-11-19T00:01:32;21.60;;;14.05;;
47804;SDS011;33568;45.286;9.900;2023-11-19T00:03:59;23.92;;;12.98;;
47804;SDS011;33568;45.286;9.900;2023-11-19T00:06:25;21.48;;;13.20;;
47804;SDS011;33568;45.286;9.900;2023-11-19T00:08:52;22.60;;;11.82;;
47804;SDS011;33568;45.286;9.900;2023-11-19T00:11:19;18.30;;;12.15;;
47804;SDS011;33568;45.286;9.900;2023-11-19T00:13:45;20.67;;;13.00;;
47804;SDS011;33568;45.286;9.900;2023-11-19T00:16:11;17.92;;;13.55;;
47804;SDS011;33568;45.286;9.900;2023-11-19T00:18:38;20.77;;;12.30;;
47804;SDS011;33568;45.286;9.900;2023-11-19T00:21:05;22.42;;;12.13;;
47804;SDS011;33568;45.286;9.900;2023-11-19T00:23:33;22.52;;;12.80;;
47804;SDS011;33568;45.286;9.900;2023-11-19T00:26:00;22.20;;;11.70;;
47804;SDS011;33568;45.286;9.900;2023-11-19T00:28:26;20.55;;;12.52;;
47804;SDS011;33568;45.286;9.900;2023-11-19T00:30:53;18.77;;;12.23;;
47804;SDS011;33568;45.286;9.900;2023-11-19T00:33:19;18.15;;;12.20;;
47804;SDS011;33568;45.286;9.900;2023-11-19T00:35:46;23.92;;;12.98;;
47804;SDS011;33568;45.286;9.900;2023-11-19T00:38:12;17.33;;;11.95;;
47804;SDS011;33568;45.286;9.900;2023-11-19T00:43:06;15.88;;;12.55;;
47804;SDS011;33568;45.286;9.900;2023-11-19T00:45:33;16.92;;;11.38;;
47804;SDS011;33568;45.286;9.900;2023-11-19T00:47:59;21.05;;;11.85;;
47804;SDS011;33568;45.286;9.900;2023-11-19T00:50:26;20.45;;;11.73;;
47804;SDS011;33568;45.286;9.900;2023-11-19T00:55:19;20.17;;;14.25;;
47804;SDS011;33568;45.286;9.900;2023-11-19T00:57:45;21.27;;;13.63;;
47804;SDS011;33568;45.286;9.900;2023-11-19T01:00:12;23.90;;;13.68;;
47804;SDS011;33568;45.286;9.900;2023-11-19T01:02:44;19.00;;;14.23;;
47804;SDS011;33568;45.286;9.900;2023-11-19T01:05:11;20.63;;;14.05;;
47804;SDS011;33568;45.286;9.900;2023-11-19T01:07:41;20.27;;;13.55;;
47804;SDS011;33568;45.286;9.900;2023-11-19T01:10:07;18.73;;;13.23;;
47804;SDS011;33568;45.286;9.900;2023-11-19T01:12:34;23.88;;;14.20;;
47804;SDS011;33568;45.286;9.900;2023-11-19T01:15:01;26.40;;;13.88;;
47804;SDS011;33568;45.286;9.900;2023-11-19T01:17:30;21.90;;;13.60;;
47804;SDS011;33568;45.286;9.900;2023-11-19T01:19:57;22.65;;;14.80;;
47804;SDS011;33568;45.286;9.900;2023-11-19T01:22:24;20.80;;;13.45;;
47804;SDS011;33568;45.286;9.900;2023-11-19T01:24:50;17.60;;;13.30;;
47804;SDS011;33568;45.286;9.900;2023-11-19T01:27:17;23.60;;;13.05;;
47804;SDS011;33568;45.286;9.900;2023-11-19T01:29:44;18.67;;;13.10;;
47804;SDS011;33568;45.286;9.900;2023-11-19T01:32:10;16.35;;;12.55;;
47804;SDS011;33568;45.286;9.900;2023-11-19T01:34:38;17.65;;;12.88;;
47804;SDS011;33568;45.286;9.900;2023-11-19T01:37:04;21.05;;;12.35;;
47804;SDS011;33568;45.286;9.900;2023-11-19T01:39:31;22.38;;;13.70;;
47804;SDS011;33568;45.286;9.900;2023-11-19T01:41:57;17.92;;;12.98;;
47804;SDS011;33568;45.286;9.900;2023-11-19T01:44:24;18.95;;;13.38;;
47804;SDS011;33568;45.286;9.900;2023-11-19T01:46:50;18.73;;;13.63;;
47804;SDS011;33568;45.286;9.900;2023-11-19T01:49:17;24.25;;;14.23;;
47804;SDS011;33568;45.286;9.900;2023-11-19T01:51:46;16.90;;;13.35;;
47804;SDS011;33568;45.286;9.900;2023-11-19T01:54:14;17.58;;;13.45;;
47804;SDS011;33568;45.286;9.900;2023-11-19T01:56:41;16.70;;;13.98;;
47804;SDS011;33568;45.286;9.900;2023-11-19T01:59:09;19.63;;;13.95;;
47804;SDS011;33568;45.286;9.900;2023-11-19T02:01:37;26.60;;;13.50;;
47804;SDS011;33568;45.286;9.900;2023-11-19T02:04:06;15.80;;;12.90;;
47804;SDS011;33568;45.286;9.900;2023-11-19T02:06:34;17.67;;;12.73;;
47804;SDS011;33568;45.286;9.900;2023-11-19T02:09:02;21.52;;;13.35;;
47804;SDS011;33568;45.286;9.900;2023-11-19T02:11:33;19.40;;;13.25;;
47804;SDS011;33568;45.286;9.900;2023-11-19T02:14:00;19.13;;;12.80;;
47804;SDS011;33568;45.286;9.900;2023-11-19T02:16:29;17.73;;;13.20;;
47804;SDS011;33568;45.286;9.900;2023-11-19T02:18:55;19.52;;;13.02;;
47804;SDS011;33568;45.286;9.900;2023-11-19T02:21:22;19.85;;;14.45;;
47804;SDS011;33568;45.286;9.900;2023-11-19T02:26:20;25.65;;;15.60;;
47804;SDS011;33568;45.286;9.900;2023-11-19T02:29:04;21.38;;;14.70;;
47804;SDS011;33568;45.286;9.900;2023-11-19T02:31:32;22.35;;;13.80;;
47804;SDS011;33568;45.286;9.900;2023-11-19T02:34:00;25.30;;;12.00;;
47804;SDS011;33568;45.286;9.900;2023-11-19T02:36:28;21.80;;;12.82;;
47804;SDS011;33568;45.286;9.900;2023-11-19T02:38:54;15.82;;;12.82;;
47804;SDS011;33568;45.286;9.900;2023-11-19T02:41:21;18.80;;;12.05;;
47804;SDS011;33568;45.286;9.900;2023-11-19T02:43:47;27.17;;;12.43;;
47804;SDS011;33568;45.286;9.900;2023-11-19T02:46:14;15.68;;;11.77;;
47804;SDS011;33568;45.286;9.900;2023-11-19T02:48:43;22.13;;;12.02;;
47804;SDS011;33568;45.286;9.900;2023-11-19T02:51:11;13.93;;;12.20;;
47804;SDS011;33568;45.286;9.900;2023-11-19T02:53:38;20.45;;;12.45;;
47804;SDS011;33568;45.286;9.900;2023-11-19T02:56:05;17.50;;;12.40;;
47804;SDS011;33568;45.286;9.900;2023-11-19T02:58:46;15.57;;;11.00;;
47804;SDS011;33568;45.286;9.900;2023-11-19T03:01:13;16.90;;;10.77;;
47804;SDS011;33568;45.286;9.900;2023-11-19T03:03:49;18.13;;;12.23;;
47804;SDS011;33568;45.286;9.900;2023-11-19T03:06:20;19.17;;;11.32;;
47804;SDS011;33568;45.286;9.900;2023-11-19T03:08:49;20.75;;;12.32;;
47804;SDS011;33568;45.286;9.900;2023-11-19T03:11:19;14.40;;;12.27;;
47804;SDS011;33568;45.286;9.900;2023-11-19T03:13:46;18.88;;;12.10;;
47804;SDS011;33568;45.286;9.900;2023-11-19T03:16:13;20.45;;;12.50;;
47804;SDS011;33568;45.286;9.900;2023-11-19T03:18:39;19.35;;;12.18;;
47804;SDS011;33568;45.286;9.900;2023-11-19T03:21:06;25.42;;;11.90;;
47804;SDS011;33568;45.286;9.900;2023-11-19T03:23:34;20.65;;;12.55;;
47804;SDS011;33568;45.286;9.900;2023-11-19T03:26:01;16.08;;;11.85;;
47804;SDS011;33568;45.286;9.900;2023-11-19T03:28:31;15.30;;;12.18;;
47804;SDS011;33568;45.286;9.900;2023-11-19T03:30:58;17.48;;;12.77;;
47804;SDS011;33568;45.286;9.900;2023-11-19T03:35:53;18.92;;;11.27;;
47804;SDS011;33568;45.286;9.900;2023-11-19T03:38:22;15.80;;;12.60;;
47804;SDS011;33568;45.286;9.900;2023-11-19T03:40:50;24.00;;;13.15;;
47804;SDS011;33568;45.286;9.900;2023-11-19T03:43:17;20.33;;;12.73;;
47804;SDS011;33568;45.286;9.900;2023-11-19T03:45:45;25.98;;;12.23;;
47804;SDS011;33568;45.286;9.900;2023-11-19T03:48:12;20.42;;;13.32;;
47804;SDS011;33568;45.286;9.900;2023-11-19T03:50:39;17.45;;;11.82;;
47804;SDS011;33568;45.286;9.900;2023-11-19T03:53:06;24.15;;;13.50;;
47804;SDS011;33568;45.286;9.900;2023-11-19T03:57:59;20.60;;;12.57;;
47804;SDS011;33568;45.286;9.900;2023-11-19T04:00:25;16.90;;;12.68;;
47804;SDS011;33568;45.286;9.900;2023-11-19T04:02:53;21.30;;;12.88;;
47804;SDS011;33568;45.286;9.900;2023-11-19T04:05:21;19.98;;;13.32;;
47804;SDS011;33568;45.286;9.900;2023-11-19T04:07:47;22.83;;;13.13;;
47804;SDS011;33568;45.286;9.900;2023-11-19T04:10:14;20.42;;;11.90;;
47804;SDS011;33568;45.286;9.900;2023-11-19T04:12:42;18.83;;;12.02;;
47804;SDS011;33568;45.286;9.900;2023-11-19T04:17:35;18.52;;;12.77;;
47804;SDS011;33568;45.286;9.900;2023-11-19T04:20:01;19.20;;;13.18;;
47804;SDS011;33568;45.286;9.900;2023-11-19T04:22:29;16.25;;;12.35;;
47804;SDS011;33568;45.286;9.900;2023-11-19T04:24:56;14.45;;;11.90;;
47804;SDS011;33568;45.286;9.900;2023-11-19T04:27:23;22.17;;;13.38;;
47804;SDS011;33568;45.286;9.900;2023-11-19T04:29:49;21.48;;;13.93;;
47804;SDS011;33568;45.286;9.900;2023-11-19T04:32:16;20.58;;;13.80;;
47804;SDS011;33568;45.286;9.900;2023-11-19T04:34:43;24.05;;;13.32;;
47804;SDS011;33568;45.286;9.900;2023-11-19T04:37:09;20.33;;;13.32;;
47804;SDS011;33568;45.286;9.900;2023-11-19T04:39:36;19.88;;;13.75;;
47804;SDS011;33568;45.286;9.900;2023-11-19T04:42:03;30.63;;;14.73;;
47804;SDS011;33568;45.286;9.900;2023-11-19T04:44:30;19.13;;;14.43;;
47804;SDS011;33568;45.286;9.900;2023-11-19T04:46:56;22.52;;;14.68;;
47804;SDS011;33568;45.286;9.900;2023-11-19T04:49:23;17.85;;;14.18;;
47804;SDS011;33568;45.286;9.900;2023-11-19T04:51:49;25.20;;;16.08;;
47804;SDS011;33568;45.286;9.900;2023-11-19T04:54:16;26.58;;;15.25;;
47804;SDS011;33568;45.286;9.900;2023-11-19T04:59:11;28.05;;;15.02;;
47804;SDS011;33568;45.286;9.900;2023-11-19T05:01:37;25.30;;;15.85;;
47804;SDS011;33568;45.286;9.900;2023-11-19T05:04:04;33.72;;;16.58;;
47804;SDS011;33568;45.286;9.900;2023-11-19T05:06:31;34.78;;;16.52;;
47804;SDS011;33568;45.286;9.900;2023-11-19T05:08:58;25.38;;;14.80;;
47804;SDS011;33568;45.286;9.900;2023-11-19T05:11:33;24.50;;;15.80;;
47804;SDS011;33568;45.286;9.900;2023-11-19T05:14:01;22.10;;;15.27;;
47804;SDS011;33568;45.286;9.900;2023-11-19T05:16:29;22.20;;;16.27;;
47804;SDS011;33568;45.286;9.900;2023-11-19T05:18:56;25.45;;;14.32;;
47804;SDS011;33568;45.286;9.900;2023-11-19T05:21:22;34.55;;;16.70;;
47804;SDS011;33568;45.286;9.900;2023-11-19T05:23:49;29.58;;;14.88;;
47804;SDS011;33568;45.286;9.900;2023-11-19T05:26:19;18.17;;;15.73;;
47804;SDS011;33568;45.286;9.900;2023-11-19T05:28:47;26.05;;;14.13;;
47804;SDS011;33568;45.286;9.900;2023-11-19T05:31:14;22.23;;;15.20;;
47804;SDS011;33568;45.286;9.900;2023-11-19T05:33:41;21.48;;;14.98;;
47804;SDS011;33568;45.286;9.900;2023-11-19T05:36:08;23.58;;;15.98;;
47804;SDS011;33568;45.286;9.900;2023-11-19T05:38:36;32.13;;;17.13;;
47804;SDS011;33568;45.286;9.900;2023-11-19T05:41:03;22.92;;;15.90;;
47804;SDS011;33568;45.286;9.900;2023-11-19T05:43:33;22.33;;;16.50;;
47804;SDS011;33568;45.286;9.900;2023-11-19T05:46:00;27.83;;;17.30;;
47804;SDS011;33568;45.286;9.900;2023-11-19T05:48:28;25.90;;;16.42;;
47804;SDS011;33568;45.286;9.900;2023-11-19T05:50:54;37.88;;;16.13;;
47804;SDS011;33568;45.286;9.900;2023-11-19T05:53:21;36.83;;;18.92;;
47804;SDS011;33568;45.286;9.900;2023-11-19T05:55:47;29.30;;;15.82;;
47804;SDS011;33568;45.286;9.900;2023-11-19T05:58:23;36.83;;;17.13;;
47804;SDS011;33568;45.286;9.900;2023-11-19T06:00:52;30.88;;;17.15;;
47804;SDS011;33568;45.286;9.900;2023-11-19T06:06:41;30.55;;;19.08;;
47804;SDS011;33568;45.286;9.900;2023-11-19T06:09:10;24.55;;;17.80;;
47804;SDS011;33568;45.286;9.900;2023-11-19T17:09:25;23.20;;;18.73;;
47804;SDS011;33568;45.286;9.900;2023-11-19T17:11:52;27.40;;;19.65;;
47804;SDS011;33568;45.286;9.900;2023-11-19T17:14:18;31.70;;;21.60;;
47804;SDS011;33568;45.286;9.900;2023-11-19T17:16:45;38.38;;;27.63;;
47804;SDS011;33568;45.286;9.900;2023-11-19T17:21:38;29.90;;;25.17;;
47804;SDS011;33568;45.286;9.900;2023-11-19T17:24:04;43.97;;;26.70;;
47804;SDS011;33568;45.286;9.900;2023-11-19T17:26:31;42.47;;;32.92;;
47804;SDS011;33568;45.286;9.900;2023-11-19T17:28:58;44.38;;;33.65;;
47804;SDS011;33568;45.286;9.900;2023-11-19T17:31:25;32.35;;;27.80;;
47804;SDS011;33568;45.286;9.900;2023-11-19T17:33:51;36.97;;;26.20;;
47804;SDS011;33568;45.286;9.900;2023-11-19T17:36:18;38.50;;;29.67;;
47804;SDS011;33568;45.286;9.900;2023-11-19T17:38:44;34.83;;;28.67;;
47804;SDS011;33568;45.286;9.900;2023-11-19T17:43:37;35.83;;;26.58;;
47804;SDS011;33568;45.286;9.900;2023-11-19T17:46:04;29.33;;;24.58;;
47804;SDS011;33568;45.286;9.900;2023-11-19T17:48:31;33.75;;;27.35;;
47804;SDS011;33568;45.286;9.900;2023-11-19T17:50:58;32.88;;;27.45;;
47804;SDS011;33568;45.286;9.900;2023-11-19T17:53:27;42.40;;;29.38;;
47804;SDS011;33568;45.286;9.900;2023-11-19T17:55:54;38.40;;;30.45;;
47804;SDS011;33568;45.286;9.900;2023-11-19T17:58:21;34.30;;;27.27;;
47804;SDS011;33568;45.286;9.900;2023-11-19T18:00:47;31.13;;;26.30;;
47804;SDS011;33568;45.286;9.900;2023-11-19T18:03:14;32.03;;;27.15;;
47804;SDS011;33568;45.286;9.900;2023-11-19T18:05:43;32.50;;;27.05;;
47804;SDS011;33568;45.286;9.900;2023-11-19T18:10:35;37.28;;;27.25;;
47804;SDS011;33568;45.286;9.900;2023-11-19T18:15:28;35.67;;;29.67;;
47804;SDS011;33568;45.286;9.900;2023-11-19T18:17:55;41.15;;;30.17;;
47804;SDS011;33568;45.286;9.900;2023-11-19T18:20:22;37.92;;;29.67;;
47804;SDS011;33568;45.286;9.900;2023-11-19T18:22:48;43.65;;;28.98;;
47804;SDS011;33568;45.286;9.900;2023-11-19T18:27:43;46.38;;;28.13;;
47804;SDS011;33568;45.286;9.900;2023-11-19T18:32:38;32.95;;;26.15;;
47804;SDS011;33568;45.286;9.900;2023-11-19T18:35:07;33.33;;;25.48;;
47804;SDS011;33568;45.286;9.900;2023-11-19T18:37:42;34.38;;;24.58;;
47804;SDS011;33568;45.286;9.900;2023-11-19T18:40:09;36.10;;;24.20;;
47804;SDS011;33568;45.286;9.900;2023-11-19T18:42:37;31.83;;;22.35;;
47804;SDS011;33568;45.286;9.900;2023-11-19T18:45:03;30.67;;;22.83;;
47804;SDS011;33568;45.286;9.900;2023-11-19T18:47:30;36.28;;;23.17;;
47804;SDS011;33568;45.286;9.900;2023-11-19T18:49:59;36.65;;;23.67;;
47804;SDS011;33568;45.286;9.900;2023-11-19T18:52:26;36.00;;;25.08;;
47804;SDS011;33568;45.286;9.900;2023-11-19T18:57:21;81.40;;;46.58;;
47804;SDS011;33568;45.286;9.900;2023-11-19T18:59:48;44.15;;;29.88;;
47804;SDS011;33568;45.286;9.900;2023-11-19T19:02:15;41.85;;;24.13;;
47804;SDS011;33568;45.286;9.900;2023-11-19T19:07:08;33.63;;;25.20;;
47804;SDS011;33568;45.286;9.900;2023-11-19T19:09:34;32.58;;;23.85;;
47804;SDS011;33568;45.286;9.900;2023-11-19T19:14:27;36.70;;;25.50;;
47804;SDS011;33568;45.286;9.900;2023-11-19T19:16:54;34.67;;;25.63;;
47804;SDS011;33568;45.286;9.900;2023-11-19T19:19:22;36.33;;;25.38;;
47804;SDS011;33568;45.286;9.900;2023-11-19T19:21:49;32.25;;;23.98;;
47804;SDS011;33568;45.286;9.900;2023-11-19T19:24:16;31.33;;;22.05;;
47804;SDS011;33568;45.286;9.900;2023-11-19T19:26:42;26.02;;;23.23;;
47804;SDS011;33568;45.286;9.900;2023-11-19T19:29:08;33.80;;;23.73;;
47804;SDS011;33568;45.286;9.900;2023-11-19T19:34:01;39.30;;;21.73;;
47804;SDS011;33568;45.286;9.900;2023-11-19T19:36:28;25.90;;;21.20;;
47804;SDS011;33568;45.286;9.900;2023-11-19T19:41:21;25.15;;;20.27;;
47804;SDS011;33568;45.286;9.900;2023-11-19T19:43:49;26.83;;;21.35;;
47804;SDS011;33568;45.286;9.900;2023-11-19T19:46:15;35.97;;;21.02;;
47804;SDS011;33568;45.286;9.900;2023-11-19T19:48:42;32.10;;;22.83;;
47804;SDS011;33568;45.286;9.900;2023-11-19T19:53:35;31.67;;;21.77;;
47804;SDS011;33568;45.286;9.900;2023-11-19T19:56:06;25.20;;;22.08;;
47804;SDS011;33568;45.286;9.900;2023-11-19T19:58:34;36.72;;;25.48;;
47804;SDS011;33568;45.286;9.900;2023-11-19T20:03:28;34.95;;;29.83;;
47804;SDS011;33568;45.286;9.900;2023-11-19T20:05:55;33.30;;;28.20;;
47804;SDS011;33568;45.286;9.900;2023-11-19T20:08:23;32.97;;;26.00;;
47804;SDS011;33568;45.286;9.900;2023-11-19T20:10:50;32.08;;;27.13;;
47804;SDS011;33568;45.286;9.900;2023-11-19T20:15:43;29.58;;;25.70;;
47804;SDS011;33568;45.286;9.900;2023-11-19T20:18:11;28.42;;;25.10;;
47804;SDS011;33568;45.286;9.900;2023-11-19T20:20:39;28.55;;;24.80;;
47804;SDS011;33568;45.286;9.900;2023-11-19T20:23:06;34.30;;;26.20;;
47804;SDS011;33568;45.286;9.900;2023-11-19T20:25:34;30.63;;;25.63;;
47804;SDS011;33568;45.286;9.900;2023-11-19T20:30:27;30.77;;;26.38;;
47804;SDS011;33568;45.286;9.900;2023-11-19T20:32:54;32.38;;;25.95;;
47804;SDS011;33568;45.286;9.900;2023-11-19T20:35:21;29.95;;;25.00;;
47804;SDS011;33568;45.286;9.900;2023-11-19T20:40:13;30.63;;;25.17;;
47804;SDS011;33568;45.286;9.900;2023-11-19T20:42:41;27.15;;;24.33;;
47804;SDS011;33568;45.286;9.900;2023-11-19T20:45:07;33.67;;;25.20;;
47804;SDS011;33568;45.286;9.900;2023-11-19T20:47:35;29.10;;;25.33;;
47804;SDS011;33568;45.286;9.900;2023-11-19T20:50:05;29.30;;;25.58;;
47804;SDS011;33568;45.286;9.900;2023-11-19T20:52:33;29.20;;;25.08;;
47804;SDS011;33568;45.286;9.900;2023-11-19T20:55:01;29.90;;;25.77;;
47804;SDS011;33568;45.286;9.900;2023-11-19T20:57:29;30.98;;;26.95;;
47804;SDS011;33568;45.286;9.900;2023-11-19T20:59:57;29.23;;;25.48;;
47804;SDS011;33568;45.286;9.900;2023-11-19T21:02:23;33.60;;;28.23;;
47804;SDS011;33568;45.286;9.900;2023-11-19T21:07:16;29.10;;;25.90;;
47804;SDS011;33568;45.286;9.900;2023-11-19T21:09:42;33.63;;;29.70;;
47804;SDS011;33568;45.286;9.900;2023-11-19T21:12:09;33.80;;;29.92;;
47804;SDS011;33568;45.286;9.900;2023-11-19T21:14:35;32.47;;;28.98;;
47804;SDS011;33568;45.286;9.900;2023-11-19T21:17:02;36.90;;;30.88;;
47804;SDS011;33568;45.286;9.900;2023-11-19T21:21:54;41.50;;;31.98;;
47804;SDS011;33568;45.286;9.900;2023-11-19T21:24:21;41.95;;;32.88;;
47804;SDS011;33568;45.286;9.900;2023-11-19T21:26:47;42.05;;;34.15;;
47804;SDS011;33568;45.286;9.900;2023-11-19T21:31:40;54.85;;;35.72;;
47804;SDS011;33568;45.286;9.900;2023-11-19T21:34:06;45.10;;;35.95;;
47804;SDS011;33568;45.286;9.900;2023-11-19T21:36:33;59.95;;;42.83;;
47804;SDS011;33568;45.286;9.900;2023-11-19T21:38:59;63.63;;;39.90;;
47804;SDS011;33568;45.286;9.900;2023-11-19T21:41:25;55.60;;;42.13;;
47804;SDS011;33568;45.286;9.900;2023-11-19T21:43:52;53.95;;;40.65;;
47804;SDS011;33568;45.286;9.900;2023-11-19T21:46:18;60.15;;;42.05;;
47804;SDS011;33568;45.286;9.900;2023-11-19T21:48:46;46.38;;;35.63;;
47804;SDS011;33568;45.286;9.900;2023-11-19T21:51:13;46.75;;;35.58;;
47804;SDS011;33568;45.286;9.900;2023-11-19T21:53:40;45.60;;;35.13;;
47804;SDS011;33568;45.286;9.900;2023-11-19T21:58:32;46.08;;;31.48;;
47804;SDS011;33568;45.286;9.900;2023-11-19T22:00:59;38.88;;;30.92;;
47804;SDS011;33568;45.286;9.900;2023-11-19T22:03:27;34.20;;;28.90;;
47804;SDS011;33568;45.286;9.900;2023-11-19T22:05:53;39.35;;;29.92;;
47804;SDS011;33568;45.286;9.900;2023-11-19T22:08:19;44.53;;;30.25;;
47804;SDS011;33568;45.286;9.900;2023-11-19T22:10:46;32.50;;;28.63;;
47804;SDS011;33568;45.286;9.900;2023-11-19T22:13:12;34.90;;;28.65;;
47804;SDS011;33568;45.286;9.900;2023-11-19T22:18:05;36.17;;;28.33;;
47804;SDS011;33568;45.286;9.900;2023-11-19T22:20:31;35.58;;;27.70;;
47804;SDS011;33568;45.286;9.900;2023-11-19T22:23:01;34.58;;;28.42;;
47804;SDS011;33568;45.286;9.900;2023-11-19T22:25:28;33.70;;;28.75;;
47804;SDS011;33568;45.286;9.900;2023-11-19T22:27:55;35.22;;;29.88;;
47804;SDS011;33568;45.286;9.900;2023-11-19T22:32:47;36.22;;;28.70;;
47804;SDS011;33568;45.286;9.900;2023-11-19T22:35:14;38.78;;;28.52;;
47804;SDS011;33568;45.286;9.900;2023-11-19T22:37:40;32.67;;;28.48;;
47804;SDS011;33568;45.286;9.900;2023-11-19T22:42:34;30.55;;;26.85;;
47804;SDS011;33568;45.286;9.900;2023-11-19T22:45:02;28.20;;;25.05;;
47804;SDS011;33568;45.286;9.900;2023-11-19T22:47:30;32.25;;;27.02;;
47804;SDS011;33568;45.286;9.900;2023-11-19T22:49:57;35.17;;;25.88;;
47804;SDS011;33568;45.286;9.900;2023-11-19T22:54:50;32.50;;;25.67;;
47804;SDS011;33568;45.286;9.900;2023-11-19T22:57:16;29.67;;;24.58;;
47804;SDS011;33568;45.286;9.900;2023-11-19T22:59:42;29.38;;;25.60;;
47804;SDS011;33568;45.286;9.900;2023-11-19T23:02:09;32.42;;;26.42;;
47804;SDS011;33568;45.286;9.900;2023-11-19T23:07:02;26.90;;;23.05;;
47804;SDS011;33568;45.286;9.900;2023-11-19T23:09:28;33.08;;;23.95;;
47804;SDS011;33568;45.286;9.900;2023-11-19T23:11:55;29.48;;;24.08;;
47804;SDS011;33568;45.286;9.900;2023-11-19T23:16:48;30.17;;;24.47;;
47804;SDS011;33568;45.286;9.900;2023-11-19T23:19:14;30.80;;;27.48;;
47804;SDS011;33568;45.286;9.900;2023-11-19T23:21:41;28.00;;;25.05;;
47804;SDS011;33568;45.286;9.900;2023-11-19T23:24:09;29.52;;;24.98;;
47804;SDS011;33568;45.286;9.900;2023-11-19T23:26:36;32.20;;;27.05;;
47804;SDS011;33568;45.286;9.900;2023-11-19T23:29:02;30.70;;;26.08;;
47804;SDS011;33568;45.286;9.900;2023-11-19T23:31:29;30.02;;;25.90;;
47804;SDS011;33568;45.286;9.900;2023-11-19T23:33:56;38.13;;;27.10;;
47804;SDS011;33568;45.286;9.900;2023-11-19T23:36:22;30.95;;;27.23;;
47804;SDS011;33568;45.286;9.900;2023-11-19T23:38:48;33.03;;;28.70;;
47804;SDS011;33568;45.286;9.900;2023-11-19T23:41:15;43.20;;;28.25;;
47804;SDS011;33568;45.286;9.900;2023-11-19T23:43:41;34.10;;;27.85;;
47804;SDS011;33568;45.286;9.900;2023-11-19T23:48:37;31.00;;;26.63;;
47804;SDS011;33568;45.286;9.900;2023-11-19T23:51:04;33.72;;;27.10;;
47804;SDS011;33568;45.286;9.900;2023-11-19T23:55:56;31.90;;;25.67;;
47804;SDS011;33568;45.286;9.900;2023-11-19T23:58:23;34.17;;;28.05;;
